TimeEST,TemperatureF,Dew PointF,Humidity,Sea Level PressureIn,VisibilityMPH,Wind Direction,Wind SpeedMPH,Gust SpeedMPH,PrecipitationIn,Events,Conditions,WindDirDegrees,DateUTC
12:54 AM,25.0,17.1,72,29.89,10.0,NW,12.7,-,N/A,,Clear,310,2013-01-22 05:54:00
1:54 AM,23.0,12.0,63,29.90,10.0,NW,10.4,-,N/A,,Clear,310,2013-01-22 06:54:00
2:54 AM,21.9,10.9,63,29.93,10.0,WNW,8.1,-,N/A,,Clear,300,2013-01-22 07:54:00
3:54 AM,21.9,12.0,66,29.96,10.0,WNW,19.6,25.3,N/A,,Clear,290,2013-01-22 08:54:00
4:54 AM,19.9,3.0,48,29.99,10.0,WNW,21.9,33.4,N/A,,Clear,290,2013-01-22 09:54:00
5:54 AM,19.0,1.9,47,30.02,10.0,WNW,16.1,27.6,N/A,,Clear,290,2013-01-22 10:54:00
6:54 AM,18.0,-0.0,45,30.05,10.0,WNW,16.1,24.2,N/A,,Clear,290,2013-01-22 11:54:00
7:54 AM,18.0,-0.0,45,30.07,10.0,WNW,18.4,26.5,N/A,,Clear,300,2013-01-22 12:54:00
8:54 AM,19.0,-0.0,43,30.10,10.0,WNW,23.0,31.1,N/A,,Clear,300,2013-01-22 13:54:00
9:54 AM,19.9,-0.0,42,30.13,10.0,West,25.3,31.1,N/A,,Clear,280,2013-01-22 14:54:00
10:54 AM,21.0,-2.0,36,30.13,10.0,WNW,19.6,33.4,N/A,,Clear,290,2013-01-22 15:54:00
11:54 AM,21.9,-0.9,37,30.12,10.0,WNW,18.4,28.8,N/A,,Clear,290,2013-01-22 16:54:00
12:54 PM,21.9,1.0,40,30.10,10.0,WNW,18.4,28.8,N/A,,Partly Cloudy,300,2013-01-22 17:54:00
1:54 PM,21.9,-0.9,37,30.09,10.0,WNW,21.9,31.1,N/A,,Clear,300,2013-01-22 18:54:00
2:54 PM,21.0,-2.0,36,30.10,10.0,West,19.6,27.6,N/A,,Partly Cloudy,280,2013-01-22 19:54:00
3:54 PM,21.0,-2.0,36,30.12,10.0,WNW,20.7,29.9,N/A,,Clear,300,2013-01-22 20:54:00
4:54 PM,19.0,-2.9,38,30.14,10.0,WNW,20.7,-,N/A,,Clear,300,2013-01-22 21:54:00
5:54 PM,18.0,-2.0,41,30.18,10.0,WNW,17.3,24.2,N/A,,Clear,300,2013-01-22 22:54:00
6:54 PM,17.1,-2.0,43,30.22,10.0,WNW,12.7,-,N/A,,Clear,300,2013-01-22 23:54:00
7:54 PM,16.0,-2.0,45,30.23,10.0,WNW,11.5,-,N/A,,Clear,300,2013-01-23 00:54:00
8:54 PM,15.1,-2.9,45,30.24,10.0,WNW,8.1,-,N/A,,Clear,290,2013-01-23 01:54:00
9:54 PM,15.1,-2.9,45,30.26,10.0,WNW,10.4,-,N/A,,Clear,290,2013-01-23 02:54:00
10:54 PM,14.0,-2.9,47,30.27,10.0,WNW,10.4,-,N/A,,Clear,300,2013-01-23 03:54:00
11:54 PM,14.0,-4.0,45,30.26,10.0,WNW,11.5,-,N/A,,Clear,290,2013-01-23 04:54:00